Absarokee, Montana
Current Conditions -  °F | °C
As of 7:53 AM on Monday 22 Dec 2014 (Local Time) from KBIL Reporting Station
Broken Clouds Broken Clouds  
Wind Chill: -4°   Ceiling: 10000
Heat Index:   Visibility: 10mi
Dew Point: -3°   Wind: 18mph
Humidity: 70%   Direction: 300°WNW
Pressure: 29.76"   Gusts: NA
Location:  45.53°N, 109.43°W
Report Text: KBIL 221453Z 30016KT 10SM SCT070 BKN100 02/M03 A2976 RMK AO2 SLP094 T00171033 51011
Loading
Personal Weather Stations






























Interactive Weather Map New forecast layout! Learn more

10-Day Weather Forecast

Advertisements
Track Severe Weather on mobile